Fort Myers, Florida
Current Conditions -  °F | °C
As of 7:53 PM on Tuesday 25 Nov 2014 (Local Time) from KFMY Reporting Station
Overcast Overcast  
Wind Chill: 80°   Ceiling: 9000
Heat Index: 84°   Visibility: 10mi
Dew Point: 73°   Wind: 7mph
Humidity: 79%   Direction: 190°S
Pressure: 29.92"   Gusts: NA
Location:  26.64°N, 81.87°W
Report Text: KFMY 260053Z 19006KT 10SM OVC090 27/23 A2992 RMK AO2 SLP134 T02670228
Loading
Personal Weather Stations






























Interactive Weather Map New forecast layout! Learn more

10-Day Weather Forecast

Advertisements
Track Severe Weather on mobile